Portada
METAR-TAF:

METAR-TAF

Aeropuertos :

Aeropuerto de Salamanca

Salamanca, España

latitud: 40-57N, longitud: 005-30W, altitud: 793 m

Observación

El informe se hizo hace 36 minutos, a las 12:00 UTC
Viento 13 kt del este
Temperatura 12°C
Humedad 30%
Presión 1033 hPa
Visibilidad 10 km o más
sin nubes por debajo de 1500 m y sin presencia de cumulonimbus.

METAR: LESA 291200Z 08013KT CAVOK 12/M05 Q1033

Hora: 13:36 (12:36 UTC)

Pronóstico

El informe se hizo hace 4 horas y 36 minutos, a las 08:00 UTC
Pronóstico válido del 29 a las 09 UTC al 30 a las 09 UTC
Viento 4 kt con dirección variable
Visibilidad 10 km o más
sin nubes por debajo de 1500 m y sin presencia de cumulonimbus.
Temporalmente
del 29 a las 10 UTC al 29 a las 18 UTC
Viento 8 kt del este-noreste

TAF: LESA 290800Z 2909/3009 VRB04KT CAVOK TX15/2915Z TNM06/3007Z TEMPO 2910/2918 06008KT

Observaciones y pronósticos meteorológicos de más de 4000 aeropuertos (mensajes METAR y TAF).

Los puntos amarillos y rojos representan las estaciones disponibles.

Ponga el ratón en el punto deseado para ver el nombre de la estación.

Haga clic para ver las observaciones y los pronósticos meteorológicos.

Para cambiar el mapa : haga clic en los botones verdes con una cruz de color negro para hacer un zoom, en el botón verde con un guión para alejar o en las flechas verdes para mapas adyacentes.


METAR-TAF: